createdAt,value
2023-05-20T00:02:33.944Z,3.85
2023-05-20T00:07:58.793Z,3.65
2023-05-20T00:13:19.401Z,3.70
2023-05-20T00:18:34.365Z,3.63
2023-05-20T00:23:44.422Z,3.28
2023-05-20T00:28:48.355Z,3.67
2023-05-20T00:33:53.846Z,3.83
2023-05-20T00:38:57.772Z,3.28
2023-05-20T00:49:31.165Z,3.90
2023-05-20T00:54:36.727Z,3.35
2023-05-20T00:59:42.852Z,3.45
2023-05-20T01:04:50.454Z,3.20
2023-05-20T01:09:56.323Z,2.53
2023-05-20T01:15:05.196Z,3.50
2023-05-20T01:20:12.675Z,3.45
2023-05-20T01:25:17.933Z,3.33
2023-05-20T01:30:23.780Z,3.15
2023-05-20T01:35:28.438Z,3.35
2023-05-20T01:40:35.322Z,3.58
2023-05-20T01:45:39.982Z,2.80
2023-05-20T01:50:45.831Z,2.58
2023-05-20T01:55:51.071Z,3.10
2023-05-20T02:00:55.273Z,3.10
2023-05-20T02:05:59.140Z,3.28
2023-05-20T02:11:05.268Z,2.85
2023-05-20T02:16:09.187Z,3.00
2023-05-20T02:21:13.035Z,2.72
2023-05-20T02:26:18.345Z,2.67
2023-05-20T02:31:22.597Z,2.78
2023-05-20T02:36:27.936Z,2.95
2023-05-20T02:41:33.087Z,2.85
2023-05-20T02:46:36.975Z,3.20
2023-05-20T02:51:41.869Z,3.08
2023-05-20T02:56:47.034Z,2.60
2023-05-20T03:01:51.087Z,2.38
2023-05-20T03:06:57.911Z,2.17
2023-05-20T03:12:03.127Z,2.80
2023-05-20T03:17:07.405Z,2.50
2023-05-20T03:22:11.738Z,3.08
2023-05-20T03:27:16.976Z,2.58
2023-05-20T03:32:20.848Z,2.70
2023-05-20T03:37:25.117Z,2.55
2023-05-20T03:42:30.536Z,2.80
2023-05-20T03:47:35.046Z,2.42
2023-05-20T03:52:40.852Z,3.15
2023-05-20T03:57:46.162Z,2.60
2023-05-20T04:02:49.755Z,2.88
2023-05-20T04:07:57.432Z,3.08
2023-05-20T04:13:03.125Z,2.60
2023-05-20T04:18:06.877Z,2.78
2023-05-20T04:23:10.777Z,3.15
2023-05-20T04:28:16.417Z,2.40
2023-05-20T04:33:20.230Z,2.55
2023-05-20T04:38:29.601Z,3.00
2023-05-20T04:43:34.965Z,3.35
2023-05-20T04:48:38.451Z,3.03
2023-05-20T04:53:43.209Z,2.72
2023-05-20T04:58:48.963Z,2.72
2023-05-20T05:03:52.561Z,2.60
2023-05-20T05:08:56.785Z,2.70
2023-05-20T05:14:01.976Z,2.78
2023-05-20T05:19:06.400Z,2.70
2023-05-20T05:24:13.881Z,3.13
2023-05-20T05:29:18.828Z,3.53
2023-05-20T05:34:22.343Z,3.08
2023-05-20T05:39:26.309Z,3.00
2023-05-20T05:44:32.345Z,3.00
2023-05-20T05:49:36.216Z,3.00
2023-05-20T05:54:40.044Z,3.20
2023-05-20T05:59:45.042Z,3.42
2023-05-20T06:04:48.662Z,3.25
2023-05-20T06:09:53.243Z,3.28
2023-05-20T06:14:58.129Z,3.30
2023-05-20T06:20:02.516Z,3.60
2023-05-20T06:25:06.655Z,3.55
2023-05-20T06:30:14.319Z,3.38
2023-05-20T06:35:17.891Z,3.80
2023-05-20T06:40:21.387Z,3.55
2023-05-20T06:45:26.408Z,3.63
2023-05-20T06:50:33.569Z,3.90
2023-05-20T06:55:37.251Z,4.22
2023-05-20T07:00:42.689Z,3.08
2023-05-20T07:05:46.296Z,3.50
2023-05-20T07:10:50.780Z,3.50
2023-05-20T07:15:59.117Z,3.63
2023-05-20T07:21:03.547Z,3.60
2023-05-20T07:26:18.515Z,3.40
2023-05-20T07:31:24.253Z,3.33
2023-05-20T07:36:28.847Z,3.88
2023-05-20T07:41:34.585Z,3.40
2023-05-20T07:46:41.849Z,4.10
2023-05-20T07:51:47.043Z,4.45
2023-05-20T07:56:51.919Z,4.47
2023-05-20T08:01:57.442Z,4.50
2023-05-20T08:07:01.796Z,3.92
2023-05-20T08:12:22.797Z,3.72
2023-05-20T08:17:28.451Z,4.00
2023-05-20T08:22:31.980Z,4.40
2023-05-20T08:27:35.952Z,4.47
2023-05-20T08:32:41.550Z,4.20
2023-05-20T08:37:45.095Z,3.63
2023-05-20T08:42:50.805Z,3.65
2023-05-20T08:47:56.446Z,3.38
2023-05-20T08:53:01.288Z,3.55
2023-05-20T08:58:05.278Z,3.45
2023-05-20T09:03:10.095Z,3.67
2023-05-20T09:08:13.956Z,3.53
2023-05-20T09:13:17.324Z,3.78
2023-05-20T09:18:22.095Z,3.20
2023-05-20T09:23:27.712Z,3.63
2023-05-20T09:28:31.273Z,3.60
2023-05-20T09:33:38.498Z,3.42
2023-05-20T09:38:42.710Z,3.60
2023-05-20T09:43:46.893Z,3.50
2023-05-20T09:48:51.810Z,4.00
2023-05-20T09:53:58.764Z,3.83
2023-05-20T09:59:03.739Z,3.50
2023-05-20T10:04:10.220Z,3.92
2023-05-20T10:09:28.566Z,3.80
2023-05-20T10:14:42.265Z,3.10
2023-05-20T10:19:47.509Z,3.72
2023-05-20T10:25:00.014Z,3.03
2023-05-20T10:30:04.177Z,3.80
2023-05-20T10:35:10.470Z,3.85
2023-05-20T10:40:16.007Z,3.00
2023-05-20T10:45:29.917Z,3.33
2023-05-20T10:50:38.340Z,3.70
2023-05-20T10:55:43.030Z,3.47
2023-05-20T11:00:47.963Z,3.13
2023-05-20T11:05:53.800Z,3.38
2023-05-20T11:10:58.285Z,3.40
2023-05-20T11:16:03.071Z,3.28
2023-05-20T11:21:08.012Z,3.03
2023-05-20T11:26:12.142Z,3.15
2023-05-20T11:31:15.831Z,2.80
2023-05-20T11:36:28.023Z,3.00
2023-05-20T11:41:31.807Z,3.25
2023-05-20T11:46:42.995Z,3.20
2023-05-20T11:51:47.894Z,3.13
2023-05-20T11:56:51.698Z,3.47
2023-05-20T12:01:55.353Z,3.28
2023-05-20T12:07:00.192Z,3.05
2023-05-20T12:12:03.705Z,3.40
2023-05-20T12:17:07.170Z,3.40
2023-05-20T12:22:11.994Z,3.50
2023-05-20T12:27:15.567Z,3.22
2023-05-20T12:32:19.065Z,3.10
2023-05-20T12:37:24.222Z,3.80
2023-05-20T12:42:27.964Z,3.08
2023-05-20T12:47:32.003Z,3.22
2023-05-20T12:52:36.913Z,3.25
2023-05-20T12:57:40.804Z,3.03
2023-05-20T13:02:44.675Z,3.58
2023-05-20T13:07:50.020Z,3.30
2023-05-20T13:12:55.122Z,2.78
2023-05-20T13:17:59.188Z,2.95
2023-05-20T13:23:04.192Z,3.13
2023-05-20T13:28:07.716Z,2.75
2023-05-20T13:33:11.664Z,3.05
2023-05-20T13:38:16.686Z,2.83
2023-05-20T13:43:23.234Z,2.78
2023-05-20T13:48:26.641Z,2.97
2023-05-20T13:53:31.516Z,2.90
2023-05-20T13:58:34.942Z,2.80
2023-05-20T14:03:40.054Z,2.70
2023-05-20T14:08:45.330Z,2.92
2023-05-20T14:13:49.215Z,3.10
2023-05-20T14:18:52.748Z,3.08
2023-05-20T14:23:58.497Z,3.05
2023-05-20T14:29:02.139Z,3.00
2023-05-20T14:34:05.996Z,2.33
2023-05-20T14:39:11.068Z,2.78
2023-05-20T14:44:14.627Z,2.70
2023-05-20T14:49:18.000Z,2.60
2023-05-20T14:54:25.045Z,2.42
2023-05-20T14:59:28.668Z,2.53
2023-05-20T15:04:32.500Z,2.28
2023-05-20T15:09:37.430Z,2.65
2023-05-20T15:14:40.956Z,2.33
2023-05-20T15:19:44.567Z,2.50
2023-05-20T15:24:49.458Z,2.65
2023-05-20T15:29:52.976Z,2.40
2023-05-20T15:34:56.429Z,2.60
2023-05-20T15:40:01.492Z,2.50
2023-05-20T15:45:05.870Z,2.42
2023-05-20T15:50:11.198Z,2.67
2023-05-20T15:55:16.218Z,2.25
2023-05-20T16:00:20.627Z,2.67
2023-05-20T16:05:25.712Z,2.83
2023-05-20T16:10:32.751Z,2.97
2023-05-20T16:15:38.558Z,3.72
2023-05-20T16:20:42.103Z,3.88
2023-05-20T16:25:46.952Z,3.70
2023-05-20T16:30:50.495Z,3.85
2023-05-20T16:35:54.011Z,4.40
2023-05-20T16:40:58.889Z,4.63
2023-05-20T16:46:02.358Z,4.35
2023-05-20T16:51:06.395Z,4.55
2023-05-20T16:56:11.417Z,4.80
2023-05-20T17:01:14.932Z,4.65
2023-05-20T17:06:20.244Z,4.18
2023-05-20T17:11:25.161Z,4.85
2023-05-20T17:16:28.679Z,4.60
2023-05-20T17:21:32.336Z,4.80
2023-05-20T17:26:40.269Z,5.32
2023-05-20T17:31:45.052Z,5.03
2023-05-20T17:36:48.567Z,4.80
2023-05-20T17:41:53.367Z,4.82
2023-05-20T17:46:59.085Z,5.57
2023-05-20T17:52:02.527Z,5.40
2023-05-20T17:57:07.458Z,5.78
2023-05-20T18:02:10.920Z,5.47
2023-05-20T18:07:17.709Z,5.22
2023-05-20T18:12:24.939Z,5.43
2023-05-20T18:17:28.450Z,4.97
2023-05-20T18:22:31.949Z,5.63
2023-05-20T18:27:36.830Z,5.65
2023-05-20T18:32:40.277Z,4.97
2023-05-20T18:37:43.774Z,5.47
2023-05-20T18:42:48.660Z,5.50
2023-05-20T18:47:53.905Z,6.03
2023-05-20T18:52:57.728Z,5.40
2023-05-20T18:58:02.631Z,5.82
2023-05-20T19:03:06.413Z,5.65
2023-05-20T19:08:09.812Z,6.10
2023-05-20T19:13:14.684Z,5.93
2023-05-20T19:18:18.226Z,5.63
2023-05-20T19:23:21.893Z,5.85
2023-05-20T19:28:26.680Z,6.45
2023-05-20T19:33:30.115Z,6.00
2023-05-20T19:38:33.482Z,6.30
2023-05-20T19:43:38.244Z,5.95
2023-05-20T19:48:41.876Z,5.60
2023-05-20T19:53:45.509Z,5.85
2023-05-20T19:58:51.007Z,6.20
2023-05-20T20:03:54.940Z,6.35
2023-05-20T20:08:58.328Z,6.07
2023-05-20T20:14:03.190Z,5.80
2023-05-20T20:19:06.609Z,6.00
2023-05-20T20:24:10.080Z,5.93
2023-05-20T20:29:15.304Z,5.57
2023-05-20T20:34:18.997Z,6.05
2023-05-20T20:39:25.027Z,6.20
2023-05-20T20:44:29.897Z,5.93
2023-05-20T20:49:33.525Z,5.95
2023-05-20T20:54:36.866Z,6.63
2023-05-20T20:59:47.975Z,6.60
2023-05-20T21:04:51.710Z,7.38
2023-05-20T21:09:55.157Z,6.95
2023-05-20T21:14:59.965Z,7.00
2023-05-20T21:20:04.224Z,6.88
2023-05-20T21:25:08.737Z,7.07
2023-05-20T21:30:15.738Z,7.28
2023-05-20T21:35:20.550Z,7.72
2023-05-20T21:40:24.094Z,7.68
2023-05-20T21:45:28.939Z,7.05
2023-05-20T21:50:32.766Z,7.35
2023-05-20T21:55:36.423Z,7.10
2023-05-20T22:00:48.654Z,7.80
2023-05-20T22:05:52.866Z,9.05
2023-05-20T22:10:58.184Z,8.38
2023-05-20T22:16:07.128Z,8.40
2023-05-20T22:21:19.947Z,7.93
2023-05-20T22:26:27.432Z,8.70
2023-05-20T22:31:32.425Z,8.35
2023-05-20T22:36:36.531Z,8.55
2023-05-20T22:41:40.260Z,8.32
2023-05-20T22:46:47.971Z,8.85
2023-05-20T22:51:52.781Z,8.18
2023-05-20T22:57:00.106Z,8.65
2023-05-20T23:02:08.272Z,8.73
2023-05-20T23:07:15.865Z,9.20
2023-05-20T23:12:19.422Z,9.30
2023-05-20T23:17:24.372Z,10.25
2023-05-20T23:22:27.834Z,9.63
2023-05-20T23:27:31.359Z,8.75
2023-05-20T23:32:36.194Z,9.38
2023-05-20T23:37:40.947Z,9.55
2023-05-20T23:42:44.517Z,9.35
2023-05-20T23:47:49.475Z,9.13
2023-05-20T23:52:53.067Z,9.63
2023-05-20T23:57:56.633Z,9.10
